Time;durP1;ratioP1;P1;durP2;ratioP2;P2;SDS_P1;SDS_P2;PMS_P1;PMS_P2;Temp;Humidity;BMP_temperature;BMP_pressure;BME280_temperature;BME280_humidity;BME280_pressure;Samples;Min_cycle;Max_cycle;Signal;HPM_P1;HPM_P2
2022/04/30 00:01:06;;;;;;;95.22;90.32;;;;;;;6.49;100.00;102860.53;10415228;28;20053;-57
2022/04/30 00:06:09;;;;;;;95.93;91.03;;;;;;;6.28;100.00;102851.13;10414638;28;20514;-56
2022/04/30 00:11:12;;;;;;;98.38;93.47;;;;;;;6.62;100.00;102839.59;10414264;28;20498;-57
2022/04/30 00:16:15;;;;;;;91.40;86.18;;;;;;;6.26;100.00;102846.81;10415049;28;20057;-56
2022/04/30 00:21:17;;;;;;;77.63;73.28;;;;;;;6.36;100.00;102843.28;10416483;28;20080;-57
2022/04/30 00:26:20;;;;;;;63.72;60.28;;;;;;;6.21;100.00;102844.25;10420797;28;20480;-56
2022/04/30 00:31:22;;;;;;;56.58;52.63;;;;;;;6.12;100.00;102839.97;10421669;28;20045;-57
2022/04/30 00:36:24;;;;;;;57.10;54.03;;;;;;;6.09;100.00;102844.31;10421581;28;20053;-56
2022/04/30 00:41:27;;;;;;;45.03;42.13;;;;;;;6.18;100.00;102838.19;10421418;28;20041;-56
2022/04/30 00:46:29;;;;;;;39.90;37.70;;;;;;;6.00;100.00;102840.03;10421799;28;20054;-57
2022/04/30 00:51:32;;;;;;;31.42;29.45;;;;;;;6.05;100.00;102829.59;10421522;28;20049;-57
2022/04/30 00:56:47;;;;;;;36.83;34.50;;;;;;;6.12;100.00;102823.50;10420248;28;20060;-55
2022/04/30 01:01:51;;;;;;;27.17;25.50;;;;;;;5.74;100.00;102819.34;10420540;28;20041;-57
2022/04/30 01:06:57;;;;;;;26.83;24.85;;;;;;;5.77;100.00;102814.13;10419879;28;20103;-56
2022/04/30 01:12:06;;;;;;;21.90;20.20;;;;;;;5.92;100.00;102810.59;10419952;28;20515;-56
2022/04/30 01:17:10;;;;;;;21.08;19.58;;;;;;;5.85;100.00;102811.47;10420679;28;20045;-56
2022/04/30 01:22:29;;;;;;;18.13;16.70;;;;;;;5.71;100.00;102809.81;10420605;28;20056;-57
2022/04/30 01:27:32;;;;;;;13.63;12.73;;;;;;;5.84;100.00;102799.38;10419621;28;20061;-56
2022/04/30 01:37:56;;;;;;;25.55;12.70;;;;;;;5.68;100.00;102794.25;10419906;28;20053;-56
2022/04/30 01:43:01;;;;;;;10.82;9.18;;;;;;;5.61;100.00;102799.47;10419576;28;20057;-56
2022/04/30 01:48:04;;;;;;;11.30;8.60;;;;;;;5.75;100.00;102795.09;10419474;28;20045;-56
2022/04/30 01:53:07;;;;;;;10.85;9.02;;;;;;;5.57;100.00;102791.69;10418574;28;20504;-56
2022/04/30 01:58:09;;;;;;;8.98;8.18;;;;;;;5.69;100.00;102788.16;10419132;28;20049;-56
2022/04/30 02:03:12;;;;;;;12.45;8.65;;;;;;;5.70;100.00;102789.00;10418746;28;20057;-57
2022/04/30 02:08:18;;;;;;;12.00;8.57;;;;;;;5.46;100.00;102790.00;10418673;28;20077;-57
2022/04/30 02:13:23;;;;;;;13.93;12.52;;;;;;;5.39;100.00;102782.22;10418044;28;20053;-56
2022/04/30 02:18:27;;;;;;;17.30;15.52;;;;;;;5.35;100.00;102777.06;10400861;28;20076;-56
2022/04/30 02:23:30;;;;;;;13.90;10.07;;;;;;;5.51;100.00;102772.66;10417430;28;20050;-57
2022/04/30 02:28:32;;;;;;;15.38;13.98;;;;;;;5.31;100.00;102770.13;10416075;28;20064;-56
2022/04/30 02:33:34;;;;;;;20.58;17.27;;;;;;;5.38;100.00;102770.13;10416938;28;20050;-57
2022/04/30 02:38:37;;;;;;;23.55;21.60;;;;;;;5.13;100.00;102765.91;10417452;28;20053;-57
2022/04/30 02:43:39;;;;;;;31.13;28.15;;;;;;;5.26;100.00;102765.00;10416964;28;20049;-56
2022/04/30 02:48:41;;;;;;;31.30;29.23;;;;;;;5.19;100.00;102766.75;10417096;28;20049;-57
2022/04/30 02:53:44;;;;;;;32.90;30.55;;;;;;;5.20;100.00;102759.81;10416832;28;20045;-56
2022/04/30 03:04:07;;;;;;;45.25;42.20;;;;;;;4.88;100.00;102760.75;10416610;28;20057;-56
2022/04/30 03:09:10;;;;;;;30.70;28.40;;;;;;;5.20;100.00;102752.88;10416434;28;20057;-56
2022/04/30 03:14:13;;;;;;;40.13;37.40;;;;;;;5.02;100.00;102745.13;10415947;28;20058;-56
2022/04/30 03:24:36;;;;;;;52.90;49.57;;;;;;;4.71;100.00;102740.03;10415409;28;20428;-56
2022/04/30 03:29:40;;;;;;;43.53;40.63;;;;;;;5.14;100.00;102739.91;10415254;28;20499;-57
2022/04/30 03:34:43;;;;;;;56.97;53.20;;;;;;;5.04;100.00;102738.19;10415071;28;20481;-55
2022/04/30 03:39:46;;;;;;;83.40;78.68;;;;;;;4.88;100.00;102727.00;10430270;28;20053;-56
2022/04/30 03:44:49;;;;;;;104.55;98.90;;;;;;;5.03;100.00;102726.09;10415581;28;20045;-57
2022/04/30 03:49:51;;;;;;;102.10;96.85;;;;;;;4.99;100.00;102721.78;10414962;28;20053;-56
2022/04/30 03:54:56;;;;;;;138.10;130.70;;;;;;;4.93;100.00;102724.41;10431121;28;20046;-56
2022/04/30 03:59:58;;;;;;;130.95;124.07;;;;;;;4.95;100.00;102725.28;10422993;28;20480;-56
2022/04/30 04:05:00;;;;;;;137.20;129.85;;;;;;;4.76;100.00;102724.47;10423451;28;20054;-56
2022/04/30 04:10:03;;;;;;;162.00;153.65;;;;;;;4.67;100.00;102733.09;10422634;28;20057;-56
2022/04/30 04:20:28;;;;;;;174.95;165.80;;;;;;;4.70;100.00;102737.44;10422298;28;20053;-55
2022/04/30 04:30:51;;;;;;;187.40;177.55;;;;;;;4.65;100.00;102727.91;10421802;28;20049;-55
2022/04/30 04:35:53;;;;;;;193.60;184.15;;;;;;;4.76;100.00;102729.66;10422296;28;20049;-57
2022/04/30 04:40:56;;;;;;;215.85;204.93;;;;;;;4.58;100.00;102734.00;10421408;28;20484;-56
2022/04/30 04:45:59;;;;;;;220.82;209.40;;;;;;;4.54;100.00;102739.16;10421851;28;20049;-55
2022/04/30 04:51:02;;;;;;;228.75;217.50;;;;;;;4.76;100.00;102751.25;10421643;28;20172;-56
2022/04/30 04:56:06;;;;;;;240.38;228.75;;;;;;;5.07;100.00;102745.13;10421482;28;20056;-56
2022/04/30 05:01:08;;;;;;;250.38;238.30;;;;;;;4.82;100.00;102751.25;10420696;28;20564;-55
2022/04/30 05:06:11;;;;;;;242.88;231.05;;;;;;;5.03;100.00;102752.06;10420573;28;20045;-56
2022/04/30 05:11:13;;;;;;;277.23;263.42;;;;;;;5.11;100.00;102752.91;10419370;28;20060;-56
2022/04/30 05:16:16;;;;;;;288.95;275.02;;;;;;;5.17;100.00;102757.22;10420730;28;20054;-56
2022/04/30 05:21:18;;;;;;;290.27;276.63;;;;;;;5.36;100.00;102761.47;10419918;28;20512;-56
2022/04/30 05:26:20;;;;;;;303.95;289.15;;;;;;;5.48;100.00;102760.56;10420358;28;20068;-56
2022/04/30 05:31:23;;;;;;;290.90;277.02;;;;;;;5.60;100.00;102762.25;10419934;28;20385;-56
2022/04/30 05:36:25;;;;;;;307.17;292.00;;;;;;;5.86;100.00;102762.06;10420069;28;20053;-55
2022/04/30 05:41:28;;;;;;;312.33;297.27;;;;;;;5.97;100.00;102764.66;10419762;28;20045;-56
2022/04/30 05:46:30;;;;;;;321.75;306.25;;;;;;;6.18;100.00;102763.63;10419421;28;20489;-55
2022/04/30 05:51:34;;;;;;;343.08;326.42;;;;;;;6.36;100.00;102769.56;10418690;28;20053;-56
2022/04/30 05:56:36;;;;;;;338.45;322.10;;;;;;;6.77;100.00;102763.13;10419299;28;20053;-56
2022/04/30 06:01:38;;;;;;;338.25;321.73;;;;;;;7.18;100.00;102760.06;10418373;28;20061;-57
2022/04/30 06:06:42;;;;;;;333.52;317.48;;;;;;;7.04;100.00;102764.56;10418110;28;20382;-56
2022/04/30 06:11:44;;;;;;;336.98;320.17;;;;;;;7.22;100.00;102772.16;10418136;28;20061;-56
2022/04/30 06:16:47;;;;;;;325.23;309.35;;;;;;;7.31;100.00;102767.72;10417616;28;20058;-57
2022/04/30 06:21:49;;;;;;;320.40;304.45;;;;;;;7.05;100.00;102774.13;10417280;28;20124;-56
2022/04/30 06:26:52;;;;;;;325.13;309.45;;;;;;;7.52;100.00;102767.47;10417858;28;20060;-57
2022/04/30 06:31:55;;;;;;;335.00;318.67;;;;;;;7.77;100.00;102770.59;10417516;28;20045;-57
2022/04/30 06:36:58;;;;;;;334.85;318.33;;;;;;;7.89;100.00;102772.16;10417530;28;20099;-57
2022/04/30 06:42:00;;;;;;;350.73;333.67;;;;;;;7.75;100.00;102774.97;10417348;28;20056;-56
2022/04/30 06:47:03;;;;;;;341.23;324.70;;;;;;;7.90;100.00;102767.81;10417125;28;20053;-57
2022/04/30 06:52:06;;;;;;;347.05;330.40;;;;;;;8.25;100.00;102761.19;10416306;28;20503;-57
2022/04/30 06:57:17;;;;;;;351.45;334.45;;;;;;;8.55;100.00;102747.63;10416661;28;20436;-57
2022/04/30 07:02:22;;;;;;;341.95;325.50;;;;;;;9.06;100.00;102746.72;10416647;28;20065;-57
2022/04/30 07:07:24;;;;;;;361.75;344.42;;;;;;;9.44;100.00;102747.66;10416440;28;20050;-57
2022/04/30 07:12:27;;;;;;;369.60;351.77;;;;;;;9.98;95.86;102748.22;10430998;28;20060;-57
2022/04/30 07:17:29;;;;;;;297.60;283.38;;;;;;;10.00;90.10;102749.03;10416167;28;20056;-57
2022/04/30 07:22:31;;;;;;;281.35;268.13;;;;;;;11.49;83.65;102745.03;10416026;28;20049;-57
2022/04/30 07:27:34;;;;;;;128.55;121.93;;;;;;;10.76;83.06;102746.25;10430413;28;20050;-58
2022/04/30 07:32:40;;;;;;;95.47;90.28;;;;;;;11.32;84.64;102739.44;10415593;28;20053;-58
2022/04/30 07:37:42;;;;;;;13.98;12.88;;;;;;;11.24;78.46;102747.53;10414660;28;20189;-58
2022/04/30 07:42:44;;;;;;;7.80;6.28;;;;;;;11.66;76.13;102748.94;10415422;28;20048;-58
2022/04/30 07:47:47;;;;;;;7.25;6.55;;;;;;;11.85;77.01;102743.94;10415475;28;20064;-58
2022/04/30 07:52:50;;;;;;;20.73;19.05;;;;;;;12.44;71.40;102733.28;10414629;28;20477;-58
2022/04/30 07:57:52;;;;;;;26.17;24.40;;;;;;;12.52;72.11;102732.16;10415329;28;20057;-58
2022/04/30 08:02:56;;;;;;;66.72;63.42;;;;;;;12.76;68.78;102733.03;10415080;28;20045;-59
2022/04/30 08:07:58;;;;;;;89.75;85.28;;;;;;;12.88;69.48;102727.38;10415787;28;20061;-58
2022/04/30 08:13:01;;;;;;;111.38;105.63;;;;;;;13.53;67.55;102724.94;10414826;28;20056;-59
2022/04/30 08:18:03;;;;;;;286.70;269.60;;;;;;;14.20;61.10;102729.25;10414368;28;20394;-59
2022/04/30 08:23:09;;;;;;;283.42;270.38;;;;;;;13.63;61.94;102725.47;10414925;28;20041;-59
2022/04/30 08:28:11;;;;;;;337.88;322.27;;;;;;;13.64;58.33;102729.81;10429575;28;20485;-59
2022/04/30 08:33:13;;;;;;;374.25;356.40;;;;;;;14.24;56.06;102725.59;10414635;28;20056;-59
2022/04/30 08:38:16;;;;;;;391.83;372.98;;;;;;;13.11;57.74;102705.50;10429937;28;20049;-59
2022/04/30 08:43:20;;;;;;;377.17;359.33;;;;;;;14.88;56.46;102701.78;10418664;28;20045;-59
2022/04/30 08:48:24;;;;;;;395.75;376.92;;;;;;;14.53;53.49;102701.56;10421872;28;20053;-59
2022/04/30 08:53:27;;;;;;;414.50;394.02;;;;;;;16.22;54.46;102706.78;10420394;28;20046;-59
2022/04/30 08:58:29;;;;;;;457.63;432.88;;;;;;;15.83;56.42;102712.31;10419613;28;20485;-59
2022/04/30 09:03:36;;;;;;;413.25;393.30;;;;;;;16.19;54.41;102692.88;10420628;28;20397;-59
2022/04/30 09:08:48;;;;;;;375.40;357.50;;;;;;;13.43;63.19;102695.53;10421049;28;20050;-59
2022/04/30 09:13:51;;;;;;;409.38;388.40;;;;;;;13.68;62.26;102703.28;10420123;28;20069;-59
2022/04/30 09:18:53;;;;;;;364.08;347.10;;;;;;;13.51;62.51;102698.69;10420641;28;20075;-59
2022/04/30 09:24:06;;;;;;;335.75;319.67;;;;;;;12.30;72.95;102698.75;10418636;28;20045;-58
2022/04/30 09:29:28;;;;;;;306.42;291.60;;;;;;;12.43;73.00;102692.16;10420306;28;20060;-59
2022/04/30 09:40:01;;;;;;;325.90;310.20;;;;;;;12.66;65.60;102684.34;10419940;28;20076;-59
2022/04/30 09:45:04;;;;;;;330.67;314.83;;;;;;;12.95;67.01;102681.53;10419834;28;20049;-59
2022/04/30 09:55:29;;;;;;;357.52;340.75;;;;;;;12.37;67.32;102684.50;10419188;28;20046;-59
2022/04/30 10:00:33;;;;;;;354.15;337.23;;;;;;;13.13;65.17;102672.09;10419066;28;20049;-59
2022/04/30 10:05:36;;;;;;;361.98;344.52;;;;;;;14.19;62.12;102666.97;10418731;28;20056;-59
2022/04/30 10:11:27;;;;;;;373.55;355.80;;;;;;;13.94;59.18;102665.38;10417339;28;20049;-59
2022/04/30 10:16:30;;;;;;;382.80;364.80;;;;;;;14.75;60.38;102654.03;10417453;28;20049;-59
2022/04/30 10:21:33;;;;;;;399.25;380.33;;;;;;;14.99;61.32;102652.88;10417017;28;20049;-59
2022/04/30 10:26:36;;;;;;;384.67;366.33;;;;;;;14.22;60.65;102648.41;10438731;22;20056;-59
2022/04/30 10:31:45;;;;;;;381.52;362.67;;;;;;;13.79;63.89;102646.75;10459006;28;20049;-59
2022/04/30 10:36:55;;;;;;;371.63;353.92;;;;;;;13.73;64.16;102646.06;10458916;28;20128;-59
2022/04/30 10:41:57;;;;;;;409.70;389.45;;;;;;;16.38;59.15;102630.22;10458767;28;20041;-59
2022/04/30 10:47:12;;;;;;;410.25;389.95;;;;;;;18.37;53.65;102617.16;10458501;28;20049;-59
2022/04/30 10:52:21;;;;;;;416.95;397.08;;;;;;;18.73;52.75;102612.31;10457680;28;20156;-59
2022/04/30 10:57:23;;;;;;;395.63;374.90;;;;;;;16.40;52.30;102616.91;10457554;28;20403;-59
2022/04/30 11:02:30;;;;;;;344.75;328.52;;;;;;;15.15;58.48;102620.53;10456867;28;20049;-59
2022/04/30 11:07:33;;;;;;;638.65;584.13;;;;;;;12.81;63.39;102634.75;10457375;28;20049;-59
2022/04/30 11:12:36;;;;;;;360.52;343.42;;;;;;;13.14;64.80;102629.09;10457606;28;20048;-59
2022/04/30 11:17:45;;;;;;;352.88;336.20;;;;;;;12.67;67.87;102628.28;10456889;28;20048;-59
2022/04/30 11:22:56;;;;;;;337.43;321.23;;;;;;;12.37;68.10;102628.47;10456771;28;20397;-59
2022/04/30 11:27:59;;;;;;;344.38;328.05;;;;;;;12.24;69.54;102626.28;10456981;28;20411;-59
2022/04/30 11:33:01;;;;;;;331.65;315.63;;;;;;;12.45;69.30;102615.91;10457067;28;20052;-59
2022/04/30 11:38:09;;;;;;;352.92;335.80;;;;;;;12.44;68.77;102616.84;10457020;28;20056;-59
2022/04/30 11:43:11;;;;;;;341.80;325.52;;;;;;;12.42;68.76;102610.78;10456910;28;20045;-59
2022/04/30 11:48:18;;;;;;;337.08;321.00;;;;;;;11.86;71.57;102614.44;10456199;28;20404;-59
2022/04/30 11:53:20;;;;;;;343.08;326.88;;;;;;;12.33;67.37;102611.97;10454859;28;20495;-58
2022/04/30 11:58:23;;;;;;;356.00;339.20;;;;;;;12.40;67.97;102600.31;10454854;28;20071;-59
2022/04/30 12:03:42;;;;;;;343.20;326.83;;;;;;;12.00;67.21;102608.75;10456608;28;20124;-59
2022/04/30 12:08:45;;;;;;;345.52;329.02;;;;;;;12.47;66.50;102603.56;10456412;28;20049;-59
2022/04/30 12:14:17;;;;;;;342.13;325.85;;;;;;;12.77;65.34;102603.34;10455138;28;20049;-59
2022/04/30 12:24:49;;;;;;;353.10;336.17;;;;;;;13.12;64.49;102590.63;10464358;28;20079;-59
2022/04/30 12:30:09;;;;;;;373.13;355.40;;;;;;;13.14;63.10;102584.38;10463726;28;20057;-59
2022/04/30 12:35:14;;;;;;;349.40;332.60;;;;;;;13.50;62.93;102580.34;10463727;28;20044;-59
2022/04/30 12:40:16;;;;;;;357.15;340.05;;;;;;;14.11;60.57;102572.47;10463523;28;20049;-58
2022/04/30 12:45:18;;;;;;;369.27;351.15;;;;;;;13.88;61.87;102570.84;10463281;28;20052;-59
2022/04/30 12:50:21;;;;;;;362.45;345.40;;;;;;;13.68;59.08;102565.56;10462497;28;20500;-59
2022/04/30 12:55:24;;;;;;;393.65;374.35;;;;;;;13.93;61.49;102554.84;10463347;28;20048;-59
2022/04/30 13:00:26;;;;;;;367.98;350.02;;;;;;;13.94;60.81;102557.41;10462744;28;20099;-59
2022/04/30 13:05:28;;;;;;;361.02;343.90;;;;;;;13.55;61.23;102555.56;10462460;28;20045;-59
2022/04/30 13:15:53;;;;;;;361.90;344.80;;;;;;;13.95;61.60;102539.81;10461502;28;20068;-59
2022/04/30 13:20:55;;;;;;;375.35;357.77;;;;;;;13.91;61.41;102543.53;10461956;28;20076;-59
2022/04/30 13:25:58;;;;;;;364.00;346.67;;;;;;;13.90;62.04;102537.41;10476958;28;20072;-59
2022/04/30 13:31:01;;;;;;;343.55;327.25;;;;;;;13.10;63.86;102537.25;10461131;28;20052;-58
2022/04/30 13:36:03;;;;;;;363.77;346.83;;;;;;;13.78;61.23;102522.13;10461238;28;20128;-59
2022/04/30 13:41:06;;;;;;;352.45;335.63;;;;;;;13.25;64.07;102523.47;10461139;28;20060;-59
2022/04/30 13:46:08;;;;;;;361.08;343.98;;;;;;;13.38;64.19;102526.47;10459177;28;20071;-59
2022/04/30 13:51:11;;;;;;;367.23;349.77;;;;;;;13.25;63.24;102528.72;10460681;28;20049;-59
2022/04/30 13:56:14;;;;;;;372.17;351.83;;;;;;;13.90;61.16;102512.84;10459862;28;20523;-59
2022/04/30 14:01:16;;;;;;;338.83;322.83;;;;;;;13.34;62.88;102506.47;10459210;28;20055;-59
2022/04/30 14:06:19;;;;;;;346.63;330.17;;;;;;;13.24;63.04;102515.63;10460161;28;20183;-58
2022/04/30 14:11:21;;;;;;;338.52;322.58;;;;;;;13.47;61.30;102510.31;10460018;28;20055;-59
2022/04/30 14:16:24;;;;;;;344.65;328.25;;;;;;;13.70;60.52;102503.19;10459728;28;20053;-59
2022/04/30 14:21:26;;;;;;;336.17;320.55;;;;;;;13.23;61.72;102499.00;10459606;28;20133;-59
2022/04/30 14:26:33;;;;;;;347.98;331.73;;;;;;;13.36;61.60;102494.09;10459010;28;20053;-59
2022/04/30 14:31:36;;;;;;;350.50;333.67;;;;;;;14.22;59.71;102497.38;10459182;28;20045;-59
2022/04/30 14:36:40;;;;;;;355.40;338.73;;;;;;;14.00;59.81;102493.06;10458868;28;20475;-59
2022/04/30 14:41:44;;;;;;;355.13;338.25;;;;;;;13.23;61.53;102487.63;10457411;28;20083;-59
2022/04/30 14:46:47;;;;;;;347.40;331.02;;;;;;;13.39;62.98;102488.72;10458573;28;20045;-59
2022/04/30 14:51:49;;;;;;;350.02;333.45;;;;;;;13.61;60.77;102482.53;10458390;28;20131;-59
2022/04/30 14:56:54;;;;;;;338.15;322.27;;;;;;;13.73;60.36;102482.88;10458189;28;20076;-59
2022/04/30 15:01:57;;;;;;;345.67;329.35;;;;;;;13.83;58.87;102470.13;10457959;28;20057;-59
2022/04/30 15:07:00;;;;;;;343.75;327.50;;;;;;;13.44;60.47;102470.97;10457250;28;20429;-59
2022/04/30 15:12:02;;;;;;;345.83;329.67;;;;;;;13.73;60.81;102461.81;10457116;28;20055;-59
2022/04/30 15:17:05;;;;;;;340.27;324.30;;;;;;;14.13;58.54;102462.63;10456851;28;20053;-59
2022/04/30 15:22:07;;;;;;;342.95;326.90;;;;;;;14.52;57.61;102463.47;10455639;28;20455;-59
2022/04/30 15:27:10;;;;;;;341.30;325.27;;;;;;;13.61;59.61;102459.69;10456891;28;20071;-59
2022/04/30 15:32:13;;;;;;;352.42;335.73;;;;;;;13.70;61.24;102461.06;10457219;28;20045;-59
2022/04/30 15:37:15;;;;;;;343.85;327.42;;;;;;;13.13;64.78;102461.72;10457032;28;20053;-59
2022/04/30 15:42:17;;;;;;;354.50;337.67;;;;;;;12.95;63.60;102465.09;10455181;28;20056;-59
2022/04/30 15:52:41;;;;;;;354.23;337.80;;;;;;;13.03;64.35;102457.75;10461559;28;20049;-59
2022/04/30 15:57:43;;;;;;;330.85;315.27;;;;;;;12.97;63.67;102450.97;10465109;28;20049;-59
2022/04/30 16:02:46;;;;;;;354.52;337.92;;;;;;;13.27;64.54;102449.75;10465046;28;20047;-59
2022/04/30 16:07:51;;;;;;;347.40;331.05;;;;;;;12.84;64.93;102447.13;10464269;28;20514;-59
2022/04/30 16:12:56;;;;;;;341.80;325.70;;;;;;;13.12;65.79;102444.22;10463947;28;20508;-59
2022/04/30 16:17:58;;;;;;;346.65;330.30;;;;;;;12.95;64.15;102439.66;10464988;28;20102;-59
2022/04/30 16:23:03;;;;;;;347.13;330.73;;;;;;;12.92;65.35;102436.31;10464219;28;20048;-59
2022/04/30 16:28:05;;;;;;;354.13;337.60;;;;;;;12.58;65.67;102440.31;10463829;28;20143;-59
2022/04/30 16:33:09;;;;;;;332.95;317.35;;;;;;;12.95;65.58;102430.94;10462572;28;20052;-58
2022/04/30 16:38:12;;;;;;;330.92;315.42;;;;;;;12.68;63.91;102432.91;10463705;28;20059;-59
2022/04/30 16:43:14;;;;;;;341.15;325.15;;;;;;;12.79;64.54;102433.31;10463394;28;20060;-59
2022/04/30 16:48:17;;;;;;;343.30;327.08;;;;;;;12.60;64.62;102431.41;10463201;28;20061;-59
2022/04/30 16:53:19;;;;;;;330.58;315.25;;;;;;;12.75;64.28;102424.69;10462313;28;20479;-59
2022/04/30 16:58:21;;;;;;;331.10;315.40;;;;;;;12.69;65.67;102424.09;10462192;28;20503;-59
2022/04/30 17:03:27;;;;;;;320.13;305.10;;;;;;;12.14;64.70;102433.22;10462436;28;20049;-59
2022/04/30 17:08:39;;;;;;;333.05;317.50;;;;;;;12.60;63.87;102428.78;10461783;28;20514;-59
2022/04/30 17:13:41;;;;;;;350.42;333.85;;;;;;;12.67;65.09;102420.69;10461626;28;20049;-59
2022/04/30 17:18:44;;;;;;;345.13;328.90;;;;;;;12.61;64.75;102430.53;10461902;28;20477;-59
2022/04/30 17:23:46;;;;;;;341.15;325.33;;;;;;;12.39;64.54;102419.13;10459873;28;20060;-58
2022/04/30 17:28:49;;;;;;;343.85;328.05;;;;;;;12.41;65.52;102412.91;10461348;28;20053;-59
2022/04/30 17:39:12;;;;;;;342.50;326.63;;;;;;;12.31;66.11;102418.59;10461146;28;20045;-59
2022/04/30 17:44:16;;;;;;;329.92;314.58;;;;;;;12.16;68.28;102418.25;10460163;28;20135;-59
2022/04/30 17:49:18;;;;;;;352.38;335.92;;;;;;;12.23;70.05;102426.75;10460796;28;20045;-59
2022/04/30 17:54:21;;;;;;;349.73;333.42;;;;;;;12.11;69.28;102435.97;10460226;28;20045;-59
2022/04/30 17:59:24;;;;;;;344.60;328.65;;;;;;;12.29;70.38;102433.53;10460346;28;20055;-59
2022/04/30 18:04:26;;;;;;;337.90;322.23;;;;;;;12.06;70.16;102437.91;10458206;28;20059;-59
2022/04/30 18:09:37;;;;;;;340.35;324.40;;;;;;;12.07;70.96;102443.09;10460141;28;20088;-59
2022/04/30 18:14:42;;;;;;;339.98;324.05;;;;;;;11.75;73.66;102438.13;10458096;28;20045;-59
2022/04/30 18:19:46;;;;;;;345.45;329.40;;;;;;;11.67;75.75;102441.91;10459460;28;20488;-59
2022/04/30 18:24:49;;;;;;;339.35;323.58;;;;;;;11.62;74.42;102443.00;10458721;28;20503;-59
2022/04/30 18:29:51;;;;;;;330.88;315.60;;;;;;;11.63;75.52;102444.69;10458642;28;20063;-59
2022/04/30 18:34:54;;;;;;;316.35;301.55;;;;;;;11.49;77.23;102443.41;10458033;28;20404;-59
2022/04/30 18:39:58;;;;;;;337.25;321.67;;;;;;;11.49;77.87;102451.28;10458146;28;20400;-59
2022/04/30 18:45:00;;;;;;;333.48;317.92;;;;;;;11.22;76.91;102458.31;10458036;28;20052;-58
2022/04/30 18:50:03;;;;;;;317.63;302.65;;;;;;;11.33;77.61;102445.72;10458536;28;20055;-59
2022/04/30 19:05:48;;;;;;;297.60;283.55;;;;;;;11.13;82.00;102462.13;10458020;28;20049;-59
2022/04/30 19:10:50;;;;;;;304.45;290.40;;;;;;;10.96;82.58;102457.44;10457945;28;20049;-59
2022/04/30 19:15:53;;;;;;;303.08;288.73;;;;;;;10.91;81.89;102461.09;10456924;28;20052;-59
2022/04/30 19:20:55;;;;;;;296.08;282.35;;;;;;;10.92;80.11;102460.19;10456810;28;20110;-59
2022/04/30 19:25:57;;;;;;;287.55;274.10;;;;;;;11.01;80.11;102465.16;10456792;28;20049;-59
2022/04/30 19:31:00;;;;;;;292.15;278.45;;;;;;;10.87;79.69;102462.09;10456157;28;20052;-59
2022/04/30 19:36:04;;;;;;;281.83;268.80;;;;;;;10.82;81.59;102464.84;10457039;28;20055;-59
2022/04/30 19:41:06;;;;;;;279.92;266.75;;;;;;;10.80;81.94;102463.22;10455874;28;20052;-59
2022/04/30 19:46:08;;;;;;;266.15;253.70;;;;;;;10.70;83.78;102463.47;10456298;28;20373;-59
2022/04/30 19:51:11;;;;;;;262.35;250.27;;;;;;;10.55;85.76;102462.19;10455682;28;20163;-59
2022/04/30 19:56:14;;;;;;;240.07;228.88;;;;;;;10.48;87.60;102470.31;10456726;28;20045;-58
2022/04/30 20:01:17;;;;;;;223.40;213.05;;;;;;;10.45;88.32;102465.16;10456064;28;20423;-58
2022/04/30 20:06:22;;;;;;;197.20;187.55;;;;;;;10.29;90.92;102467.31;10456621;28;20049;-59
2022/04/30 20:16:49;;;;;;;185.02;176.35;;;;;;;10.90;86.55;102468.09;10455681;28;20400;-59
2022/04/30 20:21:53;;;;;;;145.40;138.27;;;;;;;10.26;92.88;102459.59;10456420;28;20539;-60
2022/04/30 20:26:56;;;;;;;138.18;131.65;;;;;;;10.25;93.70;102460.47;10456393;28;20056;-60
2022/04/30 20:37:19;;;;;;;99.03;93.80;;;;;;;9.99;95.50;102452.47;10456557;28;20056;-60
2022/04/30 20:42:24;;;;;;;88.57;84.22;;;;;;;10.11;95.08;102455.66;10478331;28;20049;-60
2022/04/30 20:47:27;;;;;;;69.57;66.03;;;;;;;10.13;96.18;102459.94;10463607;28;20047;-60
2022/04/30 20:52:30;;;;;;;60.00;56.53;;;;;;;10.03;95.51;102451.47;10463167;28;20053;-60
2022/04/30 20:57:33;;;;;;;58.28;55.22;;;;;;;10.33;93.59;102458.53;10462534;28;20403;-60
2022/04/30 21:02:35;;;;;;;56.55;53.22;;;;;;;10.14;94.26;102466.03;10462176;28;20053;-60
2022/04/30 21:07:38;;;;;;;52.63;49.83;;;;;;;9.98;94.43;102455.97;10462783;28;20094;-60
2022/04/30 21:12:41;;;;;;;29.58;27.67;;;;;;;9.92;96.86;102468.38;10462443;28;20543;-60
2022/04/30 21:17:44;;;;;;;24.83;23.02;;;;;;;9.72;98.38;102468.97;10461534;28;20049;-60
2022/04/30 21:22:46;;;;;;;19.02;17.63;;;;;;;9.81;99.34;102466.06;10462615;28;20057;-60
2022/04/30 21:27:48;;;;;;;22.42;20.92;;;;;;;9.97;95.42;102463.88;10461477;28;20059;-60
2022/04/30 21:32:51;;;;;;;28.88;26.63;;;;;;;9.95;94.80;102465.69;10460442;28;20045;-60
2022/04/30 21:37:53;;;;;;;19.88;18.25;;;;;;;9.78;97.72;102466.16;10460698;28;20500;-60
2022/04/30 21:42:56;;;;;;;27.98;26.20;;;;;;;10.06;91.79;102463.63;10460580;28;20052;-60
2022/04/30 21:47:58;;;;;;;25.67;24.15;;;;;;;10.19;93.00;102461.53;10460744;28;20053;-60
2022/04/30 21:53:01;;;;;;;20.27;18.50;;;;;;;10.01;95.17;102452.44;10460222;28;20385;-60
2022/04/30 22:03:26;;;;;;;15.50;13.88;;;;;;;10.01;94.14;102441.97;10459519;28;20080;-60
2022/04/30 22:08:28;;;;;;;14.77;13.20;;;;;;;9.61;98.73;102445.69;10459064;28;20053;-60
2022/04/30 22:13:35;;;;;;;16.60;15.00;;;;;;;9.77;95.06;102447.00;10459980;28;20053;-60
2022/04/30 22:18:38;;;;;;;11.23;10.10;;;;;;;9.92;96.57;102445.72;10459856;28;20064;-60
2022/04/30 22:23:40;;;;;;;13.85;11.70;;;;;;;9.73;95.95;102444.50;10459023;28;20495;-60
2022/04/30 22:28:44;;;;;;;12.27;9.80;;;;;;;9.87;96.57;102445.00;10459154;28;20242;-60
2022/04/30 22:33:46;;;;;;;12.30;10.07;;;;;;;9.40;100.00;102447.13;10458532;28;20396;-60
2022/04/30 22:38:49;;;;;;;14.75;9.65;;;;;;;9.74;99.75;102446.22;10458403;28;20092;-60
2022/04/30 22:43:51;;;;;;;11.40;8.88;;;;;;;9.76;98.42;102444.41;10497161;22;20063;-64
2022/04/30 22:49:07;;;;;;;10.50;9.68;;;;;;;9.61;99.84;102449.16;10500024;28;20097;-63
2022/04/30 22:54:10;;;;;;;10.05;9.13;;;;;;;9.57;100.00;102447.53;10499363;28;20044;-64
2022/04/30 22:59:36;;;;;;;12.23;10.85;;;;;;;9.59;99.23;102450.97;10498973;28;20048;-64
2022/04/30 23:04:38;;;;;;;16.83;13.35;;;;;;;9.45;100.00;102447.88;10499426;28;20052;-63
2022/04/30 23:09:40;;;;;;;15.13;12.15;;;;;;;9.71;99.15;102441.91;10498654;28;20418;-63
2022/04/30 23:14:43;;;;;;;14.35;12.52;;;;;;;9.61;98.93;102445.69;10498973;28;20044;-63
2022/04/30 23:19:46;;;;;;;14.20;12.90;;;;;;;9.55;100.00;102438.00;10498372;28;20072;-63
2022/04/30 23:24:49;;;;;;;16.33;14.93;;;;;;;9.34;100.00;102445.53;10498227;28;20480;-63
2022/04/30 23:29:51;;;;;;;17.20;15.60;;;;;;;9.35;100.00;102438.56;10498199;28;20060;-63
2022/04/30 23:34:54;;;;;;;18.50;16.85;;;;;;;9.48;100.00;102435.56;10498583;28;20063;-63
2022/04/30 23:39:56;;;;;;;22.27;20.75;;;;;;;9.54;100.00;102434.53;10498550;28;20063;-63
2022/04/30 23:44:59;;;;;;;19.83;18.13;;;;;;;9.49;100.00;102425.97;10498469;28;20048;-63
2022/04/30 23:50:02;;;;;;;26.13;24.17;;;;;;;9.52;100.00;102418.03;10498382;28;20094;-63